sensor_id;sensor_type;location;lat;lon;timestamp;P1;durP1;ratioP1;P2;durP2;ratioP2
1370;SDS011;14306;49.942;11.570;2023-05-28T00:01:09;12.47;;;6.83;;
1370;SDS011;14306;49.942;11.570;2023-05-28T00:03:38;13.83;;;6.87;;
1370;SDS011;14306;49.942;11.570;2023-05-28T00:06:08;13.57;;;6.53;;
1370;SDS011;14306;49.942;11.570;2023-05-28T00:08:37;10.10;;;6.73;;
1370;SDS011;14306;49.942;11.570;2023-05-28T00:11:06;17.90;;;7.77;;
1370;SDS011;14306;49.942;11.570;2023-05-28T00:13:35;12.10;;;6.47;;
1370;SDS011;14306;49.942;11.570;2023-05-28T00:16:03;12.43;;;7.00;;
1370;SDS011;14306;49.942;11.570;2023-05-28T00:18:32;19.83;;;7.73;;
1370;SDS011;14306;49.942;11.570;2023-05-28T00:21:01;15.20;;;7.77;;
1370;SDS011;14306;49.942;11.570;2023-05-28T00:23:29;12.00;;;6.10;;
1370;SDS011;14306;49.942;11.570;2023-05-28T00:25:58;11.00;;;6.43;;
1370;SDS011;14306;49.942;11.570;2023-05-28T00:28:27;13.50;;;6.77;;
1370;SDS011;14306;49.942;11.570;2023-05-28T00:30:56;16.73;;;6.10;;
1370;SDS011;14306;49.942;11.570;2023-05-28T00:33:24;15.03;;;7.57;;
1370;SDS011;14306;49.942;11.570;2023-05-28T00:35:52;10.33;;;5.90;;
1370;SDS011;14306;49.942;11.570;2023-05-28T00:38:23;9.73;;;5.23;;
1370;SDS011;14306;49.942;11.570;2023-05-28T00:40:51;20.90;;;6.40;;
1370;SDS011;14306;49.942;11.570;2023-05-28T00:43:20;15.27;;;7.20;;
1370;SDS011;14306;49.942;11.570;2023-05-28T00:45:50;13.63;;;5.90;;
1370;SDS011;14306;49.942;11.570;2023-05-28T00:48:19;15.63;;;6.47;;
1370;SDS011;14306;49.942;11.570;2023-05-28T00:50:47;15.03;;;7.13;;
1370;SDS011;14306;49.942;11.570;2023-05-28T00:53:16;11.93;;;5.67;;
1370;SDS011;14306;49.942;11.570;2023-05-28T00:55:45;17.50;;;6.87;;
1370;SDS011;14306;49.942;11.570;2023-05-28T00:58:15;11.30;;;6.50;;
1370;SDS011;14306;49.942;11.570;2023-05-28T01:00:46;13.63;;;6.00;;
1370;SDS011;14306;49.942;11.570;2023-05-28T01:03:16;16.23;;;7.33;;
1370;SDS011;14306;49.942;11.570;2023-05-28T01:05:44;18.73;;;6.70;;
1370;SDS011;14306;49.942;11.570;2023-05-28T01:08:14;9.97;;;6.13;;
1370;SDS011;14306;49.942;11.570;2023-05-28T01:10:42;17.87;;;7.80;;
1370;SDS011;14306;49.942;11.570;2023-05-28T01:13:10;16.20;;;7.50;;
1370;SDS011;14306;49.942;11.570;2023-05-28T01:15:40;18.57;;;7.67;;
1370;SDS011;14306;49.942;11.570;2023-05-28T01:18:08;12.60;;;6.93;;
1370;SDS011;14306;49.942;11.570;2023-05-28T01:20:37;11.93;;;6.90;;
1370;SDS011;14306;49.942;11.570;2023-05-28T01:23:06;15.10;;;8.33;;
1370;SDS011;14306;49.942;11.570;2023-05-28T01:25:41;12.63;;;6.83;;
1370;SDS011;14306;49.942;11.570;2023-05-28T01:28:11;11.40;;;6.63;;
1370;SDS011;14306;49.942;11.570;2023-05-28T01:30:40;16.13;;;8.07;;
1370;SDS011;14306;49.942;11.570;2023-05-28T01:33:10;11.00;;;6.00;;
1370;SDS011;14306;49.942;11.570;2023-05-28T01:35:38;8.43;;;5.77;;
1370;SDS011;14306;49.942;11.570;2023-05-28T01:38:07;14.30;;;6.60;;
1370;SDS011;14306;49.942;11.570;2023-05-28T01:40:39;16.60;;;6.00;;
1370;SDS011;14306;49.942;11.570;2023-05-28T01:43:10;15.80;;;6.83;;
1370;SDS011;14306;49.942;11.570;2023-05-28T01:45:39;11.77;;;5.97;;
1370;SDS011;14306;49.942;11.570;2023-05-28T01:48:08;12.30;;;7.17;;
1370;SDS011;14306;49.942;11.570;2023-05-28T01:50:37;17.30;;;7.90;;
1370;SDS011;14306;49.942;11.570;2023-05-28T01:53:06;11.73;;;5.90;;
1370;SDS011;14306;49.942;11.570;2023-05-28T01:55:34;14.33;;;6.50;;
1370;SDS011;14306;49.942;11.570;2023-05-28T01:58:04;12.37;;;5.90;;
1370;SDS011;14306;49.942;11.570;2023-05-28T02:00:32;12.90;;;7.13;;
1370;SDS011;14306;49.942;11.570;2023-05-28T02:03:03;15.77;;;6.40;;
1370;SDS011;14306;49.942;11.570;2023-05-28T02:05:32;8.73;;;5.10;;
1370;SDS011;14306;49.942;11.570;2023-05-28T02:08:01;11.33;;;5.70;;
1370;SDS011;14306;49.942;11.570;2023-05-28T02:10:29;12.53;;;6.20;;
1370;SDS011;14306;49.942;11.570;2023-05-28T02:12:58;11.00;;;6.37;;
1370;SDS011;14306;49.942;11.570;2023-05-28T02:15:28;16.40;;;6.60;;
1370;SDS011;14306;49.942;11.570;2023-05-28T02:17:56;14.63;;;7.47;;
1370;SDS011;14306;49.942;11.570;2023-05-28T02:20:25;13.53;;;6.20;;
1370;SDS011;14306;49.942;11.570;2023-05-28T02:22:53;10.67;;;6.03;;
1370;SDS011;14306;49.942;11.570;2023-05-28T02:25:21;10.53;;;6.07;;
1370;SDS011;14306;49.942;11.570;2023-05-28T02:27:50;15.13;;;6.63;;
1370;SDS011;14306;49.942;11.570;2023-05-28T02:30:18;17.40;;;8.20;;
1370;SDS011;14306;49.942;11.570;2023-05-28T02:32:49;16.37;;;6.93;;
1370;SDS011;14306;49.942;11.570;2023-05-28T02:35:17;18.33;;;7.07;;
1370;SDS011;14306;49.942;11.570;2023-05-28T02:37:46;20.23;;;8.27;;
1370;SDS011;14306;49.942;11.570;2023-05-28T02:40:15;15.40;;;7.37;;
1370;SDS011;14306;49.942;11.570;2023-05-28T02:42:43;19.80;;;8.10;;
1370;SDS011;14306;49.942;11.570;2023-05-28T02:45:13;16.27;;;7.50;;
1370;SDS011;14306;49.942;11.570;2023-05-28T02:47:41;17.27;;;6.90;;
1370;SDS011;14306;49.942;11.570;2023-05-28T02:50:11;14.77;;;6.90;;
1370;SDS011;14306;49.942;11.570;2023-05-28T02:52:39;15.30;;;7.60;;
1370;SDS011;14306;49.942;11.570;2023-05-28T02:55:07;10.80;;;7.47;;
1370;SDS011;14306;49.942;11.570;2023-05-28T02:57:36;12.47;;;7.17;;
1370;SDS011;14306;49.942;11.570;2023-05-28T03:00:05;11.87;;;7.33;;
1370;SDS011;14306;49.942;11.570;2023-05-28T03:02:35;19.80;;;8.40;;
1370;SDS011;14306;49.942;11.570;2023-05-28T03:05:04;11.40;;;6.60;;
1370;SDS011;14306;49.942;11.570;2023-05-28T03:07:35;16.87;;;7.07;;
1370;SDS011;14306;49.942;11.570;2023-05-28T03:10:04;13.50;;;8.97;;
1370;SDS011;14306;49.942;11.570;2023-05-28T03:12:33;14.80;;;7.50;;
1370;SDS011;14306;49.942;11.570;2023-05-28T03:15:02;15.43;;;7.00;;
1370;SDS011;14306;49.942;11.570;2023-05-28T03:17:31;14.43;;;8.47;;
1370;SDS011;14306;49.942;11.570;2023-05-28T03:20:00;13.63;;;7.63;;
1370;SDS011;14306;49.942;11.570;2023-05-28T03:22:28;16.37;;;7.00;;
1370;SDS011;14306;49.942;11.570;2023-05-28T03:24:59;20.07;;;7.43;;
1370;SDS011;14306;49.942;11.570;2023-05-28T03:27:27;19.63;;;8.00;;
1370;SDS011;14306;49.942;11.570;2023-05-28T03:29:55;11.90;;;6.80;;
1370;SDS011;14306;49.942;11.570;2023-05-28T03:32:23;16.63;;;6.23;;
1370;SDS011;14306;49.942;11.570;2023-05-28T03:34:52;12.27;;;6.13;;
1370;SDS011;14306;49.942;11.570;2023-05-28T03:37:20;15.80;;;6.77;;
1370;SDS011;14306;49.942;11.570;2023-05-28T03:39:48;12.77;;;7.27;;
1370;SDS011;14306;49.942;11.570;2023-05-28T03:42:19;11.53;;;6.93;;
1370;SDS011;14306;49.942;11.570;2023-05-28T03:44:47;17.23;;;6.73;;
1370;SDS011;14306;49.942;11.570;2023-05-28T03:47:16;11.63;;;6.33;;
1370;SDS011;14306;49.942;11.570;2023-05-28T03:49:45;11.00;;;6.27;;
1370;SDS011;14306;49.942;11.570;2023-05-28T03:52:13;10.97;;;5.67;;
1370;SDS011;14306;49.942;11.570;2023-05-28T03:54:42;14.73;;;7.03;;
1370;SDS011;14306;49.942;11.570;2023-05-28T03:57:11;10.30;;;6.17;;
1370;SDS011;14306;49.942;11.570;2023-05-28T03:59:40;9.40;;;4.53;;
1370;SDS011;14306;49.942;11.570;2023-05-28T04:02:09;11.10;;;6.00;;
1370;SDS011;14306;49.942;11.570;2023-05-28T04:04:37;8.13;;;5.57;;
1370;SDS011;14306;49.942;11.570;2023-05-28T04:07:06;7.40;;;4.70;;
1370;SDS011;14306;49.942;11.570;2023-05-28T04:09:35;8.83;;;5.37;;
1370;SDS011;14306;49.942;11.570;2023-05-28T04:12:04;10.90;;;6.43;;
1370;SDS011;14306;49.942;11.570;2023-05-28T04:14:33;10.10;;;5.83;;
1370;SDS011;14306;49.942;11.570;2023-05-28T04:17:03;11.20;;;4.70;;
1370;SDS011;14306;49.942;11.570;2023-05-28T04:19:32;8.70;;;5.60;;
1370;SDS011;14306;49.942;11.570;2023-05-28T04:22:01;11.87;;;5.40;;
1370;SDS011;14306;49.942;11.570;2023-05-28T04:24:30;12.63;;;5.30;;
1370;SDS011;14306;49.942;11.570;2023-05-28T04:26:58;8.87;;;5.57;;
1370;SDS011;14306;49.942;11.570;2023-05-28T04:29:27;10.13;;;6.40;;
1370;SDS011;14306;49.942;11.570;2023-05-28T04:31:56;11.87;;;5.83;;
1370;SDS011;14306;49.942;11.570;2023-05-28T04:34:26;8.93;;;5.10;;
1370;SDS011;14306;49.942;11.570;2023-05-28T04:36:55;10.93;;;5.17;;
1370;SDS011;14306;49.942;11.570;2023-05-28T04:39:24;10.50;;;5.17;;
1370;SDS011;14306;49.942;11.570;2023-05-28T04:41:52;8.20;;;5.53;;
1370;SDS011;14306;49.942;11.570;2023-05-28T04:44:21;16.70;;;4.97;;
1370;SDS011;14306;49.942;11.570;2023-05-28T04:46:52;6.33;;;4.87;;
1370;SDS011;14306;49.942;11.570;2023-05-28T04:49:21;11.80;;;5.57;;
1370;SDS011;14306;49.942;11.570;2023-05-28T04:51:51;10.70;;;5.60;;
1370;SDS011;14306;49.942;11.570;2023-05-28T04:54:19;6.70;;;4.53;;
1370;SDS011;14306;49.942;11.570;2023-05-28T04:56:48;9.03;;;5.00;;
1370;SDS011;14306;49.942;11.570;2023-05-28T04:59:17;6.10;;;4.50;;
1370;SDS011;14306;49.942;11.570;2023-05-28T05:01:46;7.13;;;4.50;;
1370;SDS011;14306;49.942;11.570;2023-05-28T05:04:15;9.27;;;5.47;;
1370;SDS011;14306;49.942;11.570;2023-05-28T05:06:44;8.80;;;5.00;;
1370;SDS011;14306;49.942;11.570;2023-05-28T05:09:14;10.80;;;5.70;;
1370;SDS011;14306;49.942;11.570;2023-05-28T05:11:43;13.70;;;5.63;;
1370;SDS011;14306;49.942;11.570;2023-05-28T05:14:12;13.63;;;5.60;;
1370;SDS011;14306;49.942;11.570;2023-05-28T05:16:41;8.20;;;4.93;;
1370;SDS011;14306;49.942;11.570;2023-05-28T05:19:09;7.90;;;4.90;;
1370;SDS011;14306;49.942;11.570;2023-05-28T05:21:38;10.63;;;6.10;;
1370;SDS011;14306;49.942;11.570;2023-05-28T05:24:06;8.40;;;5.50;;
1370;SDS011;14306;49.942;11.570;2023-05-28T05:26:37;12.73;;;5.87;;
1370;SDS011;14306;49.942;11.570;2023-05-28T05:29:06;13.20;;;5.93;;
1370;SDS011;14306;49.942;11.570;2023-05-28T05:31:34;7.53;;;5.00;;
1370;SDS011;14306;49.942;11.570;2023-05-28T05:34:03;12.90;;;6.50;;
1370;SDS011;14306;49.942;11.570;2023-05-28T05:36:32;7.27;;;5.20;;
1370;SDS011;14306;49.942;11.570;2023-05-28T05:39:00;7.13;;;5.00;;
1370;SDS011;14306;49.942;11.570;2023-05-28T05:41:29;8.33;;;5.13;;
1370;SDS011;14306;49.942;11.570;2023-05-28T05:43:59;8.30;;;5.23;;
1370;SDS011;14306;49.942;11.570;2023-05-28T05:46:28;9.70;;;5.43;;
1370;SDS011;14306;49.942;11.570;2023-05-28T05:48:56;8.20;;;5.60;;
1370;SDS011;14306;49.942;11.570;2023-05-28T05:51:24;14.70;;;5.60;;
1370;SDS011;14306;49.942;11.570;2023-05-28T05:53:53;9.60;;;5.57;;
1370;SDS011;14306;49.942;11.570;2023-05-28T05:56:21;8.30;;;5.20;;
1370;SDS011;14306;49.942;11.570;2023-05-28T05:58:49;7.67;;;4.97;;
1370;SDS011;14306;49.942;11.570;2023-05-28T06:01:20;12.30;;;5.20;;
1370;SDS011;14306;49.942;11.570;2023-05-28T06:03:49;9.30;;;5.40;;
1370;SDS011;14306;49.942;11.570;2023-05-28T06:06:17;8.90;;;5.30;;
1370;SDS011;14306;49.942;11.570;2023-05-28T06:08:46;6.80;;;4.40;;
1370;SDS011;14306;49.942;11.570;2023-05-28T06:11:14;10.30;;;5.47;;
1370;SDS011;14306;49.942;11.570;2023-05-28T06:13:43;6.57;;;4.90;;
1370;SDS011;14306;49.942;11.570;2023-05-28T06:16:12;11.57;;;5.73;;
1370;SDS011;14306;49.942;11.570;2023-05-28T06:18:41;9.83;;;5.73;;
1370;SDS011;14306;49.942;11.570;2023-05-28T06:21:10;7.80;;;5.33;;
1370;SDS011;14306;49.942;11.570;2023-05-28T06:23:38;9.83;;;5.47;;
1370;SDS011;14306;49.942;11.570;2023-05-28T06:26:07;5.97;;;4.20;;
1370;SDS011;14306;49.942;11.570;2023-05-28T06:28:35;9.07;;;4.70;;
1370;SDS011;14306;49.942;11.570;2023-05-28T06:31:04;9.00;;;4.60;;
1370;SDS011;14306;49.942;11.570;2023-05-28T06:33:33;9.20;;;5.00;;
1370;SDS011;14306;49.942;11.570;2023-05-28T06:36:03;10.17;;;4.80;;
1370;SDS011;14306;49.942;11.570;2023-05-28T06:38:33;5.33;;;4.60;;
1370;SDS011;14306;49.942;11.570;2023-05-28T06:41:02;7.53;;;4.53;;
1370;SDS011;14306;49.942;11.570;2023-05-28T06:43:30;10.90;;;5.83;;
1370;SDS011;14306;49.942;11.570;2023-05-28T06:45:59;8.30;;;4.70;;
1370;SDS011;14306;49.942;11.570;2023-05-28T06:48:27;6.40;;;4.70;;
1370;SDS011;14306;49.942;11.570;2023-05-28T06:50:56;13.20;;;5.63;;
1370;SDS011;14306;49.942;11.570;2023-05-28T06:53:27;13.33;;;5.07;;
1370;SDS011;14306;49.942;11.570;2023-05-28T06:55:56;8.00;;;4.70;;
1370;SDS011;14306;49.942;11.570;2023-05-28T06:58:25;10.33;;;4.83;;
1370;SDS011;14306;49.942;11.570;2023-05-28T07:00:55;6.83;;;4.50;;
1370;SDS011;14306;49.942;11.570;2023-05-28T07:03:24;20.17;;;6.40;;
1370;SDS011;14306;49.942;11.570;2023-05-28T07:05:52;8.73;;;5.30;;
1370;SDS011;14306;49.942;11.570;2023-05-28T07:08:22;8.70;;;4.60;;
1370;SDS011;14306;49.942;11.570;2023-05-28T07:10:52;7.00;;;4.60;;
1370;SDS011;14306;49.942;11.570;2023-05-28T07:13:20;9.20;;;5.00;;
1370;SDS011;14306;49.942;11.570;2023-05-28T07:15:49;8.97;;;4.50;;
1370;SDS011;14306;49.942;11.570;2023-05-28T07:18:18;7.50;;;4.43;;
1370;SDS011;14306;49.942;11.570;2023-05-28T07:20:49;6.43;;;4.70;;
1370;SDS011;14306;49.942;11.570;2023-05-28T07:23:18;6.87;;;4.73;;
1370;SDS011;14306;49.942;11.570;2023-05-28T07:25:47;7.40;;;4.40;;
1370;SDS011;14306;49.942;11.570;2023-05-28T07:28:19;7.13;;;4.30;;
1370;SDS011;14306;49.942;11.570;2023-05-28T07:30:48;5.80;;;4.37;;
1370;SDS011;14306;49.942;11.570;2023-05-28T07:33:16;6.27;;;4.10;;
1370;SDS011;14306;49.942;11.570;2023-05-28T07:35:45;6.90;;;4.57;;
1370;SDS011;14306;49.942;11.570;2023-05-28T07:38:14;8.73;;;4.40;;
1370;SDS011;14306;49.942;11.570;2023-05-28T07:40:43;7.77;;;4.70;;
1370;SDS011;14306;49.942;11.570;2023-05-28T07:43:12;9.60;;;4.77;;
1370;SDS011;14306;49.942;11.570;2023-05-28T07:45:42;7.53;;;4.00;;
1370;SDS011;14306;49.942;11.570;2023-05-28T07:48:11;8.67;;;3.90;;
1370;SDS011;14306;49.942;11.570;2023-05-28T07:50:39;4.80;;;4.27;;
1370;SDS011;14306;49.942;11.570;2023-05-28T07:53:09;4.90;;;4.40;;
1370;SDS011;14306;49.942;11.570;2023-05-28T07:55:38;7.70;;;3.37;;
1370;SDS011;14306;49.942;11.570;2023-05-28T07:58:07;8.60;;;4.13;;
1370;SDS011;14306;49.942;11.570;2023-05-28T08:00:38;7.40;;;4.03;;
1370;SDS011;14306;49.942;11.570;2023-05-28T08:03:09;14.30;;;4.70;;
1370;SDS011;14306;49.942;11.570;2023-05-28T08:05:38;8.70;;;4.23;;
1370;SDS011;14306;49.942;11.570;2023-05-28T08:08:07;9.53;;;5.13;;
1370;SDS011;14306;49.942;11.570;2023-05-28T08:10:37;7.67;;;4.53;;
1370;SDS011;14306;49.942;11.570;2023-05-28T08:13:16;5.87;;;3.90;;
1370;SDS011;14306;49.942;11.570;2023-05-28T08:15:45;9.20;;;4.57;;
1370;SDS011;14306;49.942;11.570;2023-05-28T08:18:17;6.87;;;3.80;;
1370;SDS011;14306;49.942;11.570;2023-05-28T08:20:46;8.50;;;4.60;;
1370;SDS011;14306;49.942;11.570;2023-05-28T08:23:16;6.90;;;4.40;;
1370;SDS011;14306;49.942;11.570;2023-05-28T08:25:45;7.70;;;3.90;;
1370;SDS011;14306;49.942;11.570;2023-05-28T08:28:16;8.40;;;4.50;;
1370;SDS011;14306;49.942;11.570;2023-05-28T08:30:44;9.63;;;3.70;;
1370;SDS011;14306;49.942;11.570;2023-05-28T08:33:13;6.57;;;4.30;;
1370;SDS011;14306;49.942;11.570;2023-05-28T08:35:44;7.20;;;4.30;;
1370;SDS011;14306;49.942;11.570;2023-05-28T08:38:12;9.00;;;3.60;;
1370;SDS011;14306;49.942;11.570;2023-05-28T08:40:43;8.17;;;3.93;;
1370;SDS011;14306;49.942;11.570;2023-05-28T08:43:18;4.87;;;3.80;;
1370;SDS011;14306;49.942;11.570;2023-05-28T08:45:47;8.03;;;4.40;;
1370;SDS011;14306;49.942;11.570;2023-05-28T08:48:20;5.27;;;3.80;;
1370;SDS011;14306;49.942;11.570;2023-05-28T08:50:52;6.10;;;4.00;;
1370;SDS011;14306;49.942;11.570;2023-05-28T08:53:22;7.03;;;4.00;;
1370;SDS011;14306;49.942;11.570;2023-05-28T08:55:56;7.53;;;4.20;;
1370;SDS011;14306;49.942;11.570;2023-05-28T08:58:27;7.60;;;4.07;;
1370;SDS011;14306;49.942;11.570;2023-05-28T09:00:56;8.00;;;3.77;;
1370;SDS011;14306;49.942;11.570;2023-05-28T09:03:25;7.87;;;4.30;;
1370;SDS011;14306;49.942;11.570;2023-05-28T09:05:55;5.47;;;3.87;;
1370;SDS011;14306;49.942;11.570;2023-05-28T09:08:24;5.53;;;3.70;;
1370;SDS011;14306;49.942;11.570;2023-05-28T09:10:55;6.90;;;3.37;;
1370;SDS011;14306;49.942;11.570;2023-05-28T09:13:25;7.30;;;3.23;;
1370;SDS011;14306;49.942;11.570;2023-05-28T09:15:54;6.23;;;3.40;;
1370;SDS011;14306;49.942;11.570;2023-05-28T09:18:24;6.80;;;4.30;;
1370;SDS011;14306;49.942;11.570;2023-05-28T09:20:57;6.83;;;2.93;;
1370;SDS011;14306;49.942;11.570;2023-05-28T09:23:28;5.77;;;3.70;;
1370;SDS011;14306;49.942;11.570;2023-05-28T09:25:58;6.70;;;3.47;;
1370;SDS011;14306;49.942;11.570;2023-05-28T09:28:27;9.03;;;3.30;;
1370;SDS011;14306;49.942;11.570;2023-05-28T09:31:02;4.73;;;2.97;;
1370;SDS011;14306;49.942;11.570;2023-05-28T09:33:32;6.20;;;3.33;;
1370;SDS011;14306;49.942;11.570;2023-05-28T09:36:03;6.53;;;3.53;;
1370;SDS011;14306;49.942;11.570;2023-05-28T09:38:37;12.93;;;3.70;;
1370;SDS011;14306;49.942;11.570;2023-05-28T09:43:55;11.00;;;3.97;;
1370;SDS011;14306;49.942;11.570;2023-05-28T09:46:28;12.50;;;3.90;;
1370;SDS011;14306;49.942;11.570;2023-05-28T09:48:58;4.43;;;3.67;;
1370;SDS011;14306;49.942;11.570;2023-05-28T09:51:30;8.23;;;3.97;;
1370;SDS011;14306;49.942;11.570;2023-05-28T09:54:00;6.33;;;3.90;;
1370;SDS011;14306;49.942;11.570;2023-05-28T09:56:30;5.67;;;3.43;;
1370;SDS011;14306;49.942;11.570;2023-05-28T09:59:04;7.00;;;3.30;;
1370;SDS011;14306;49.942;11.570;2023-05-28T10:01:37;9.70;;;3.70;;
1370;SDS011;14306;49.942;11.570;2023-05-28T10:04:08;5.73;;;4.43;;
1370;SDS011;14306;49.942;11.570;2023-05-28T10:06:40;7.17;;;3.87;;
1370;SDS011;14306;49.942;11.570;2023-05-28T10:09:13;5.23;;;3.27;;
1370;SDS011;14306;49.942;11.570;2023-05-28T10:11:46;8.60;;;4.57;;
1370;SDS011;14306;49.942;11.570;2023-05-28T10:14:22;6.40;;;3.60;;
1370;SDS011;14306;49.942;11.570;2023-05-28T10:16:52;6.90;;;3.70;;
1370;SDS011;14306;49.942;11.570;2023-05-28T10:19:21;5.60;;;3.30;;
1370;SDS011;14306;49.942;11.570;2023-05-28T10:21:51;5.40;;;4.00;;
1370;SDS011;14306;49.942;11.570;2023-05-28T10:24:23;7.63;;;3.77;;
1370;SDS011;14306;49.942;11.570;2023-05-28T10:26:52;8.63;;;3.40;;
1370;SDS011;14306;49.942;11.570;2023-05-28T10:29:21;6.13;;;3.63;;
1370;SDS011;14306;49.942;11.570;2023-05-28T10:31:58;6.93;;;4.07;;
1370;SDS011;14306;49.942;11.570;2023-05-28T10:34:31;7.20;;;4.40;;
1370;SDS011;14306;49.942;11.570;2023-05-28T10:37:05;9.57;;;3.90;;
1370;SDS011;14306;49.942;11.570;2023-05-28T10:39:38;5.97;;;3.50;;
1370;SDS011;14306;49.942;11.570;2023-05-28T10:42:09;3.83;;;2.90;;
1370;SDS011;14306;49.942;11.570;2023-05-28T10:44:51;9.23;;;3.43;;
1370;SDS011;14306;49.942;11.570;2023-05-28T10:47:35;8.20;;;3.90;;
1370;SDS011;14306;49.942;11.570;2023-05-28T10:50:12;6.80;;;3.33;;
1370;SDS011;14306;49.942;11.570;2023-05-28T10:53:06;6.53;;;3.77;;
1370;SDS011;14306;49.942;11.570;2023-05-28T10:55:47;7.00;;;3.47;;
1370;SDS011;14306;49.942;11.570;2023-05-28T10:58:25;7.20;;;3.70;;
1370;SDS011;14306;49.942;11.570;2023-05-28T11:01:03;5.13;;;3.40;;
1370;SDS011;14306;49.942;11.570;2023-05-28T11:03:42;7.70;;;3.87;;
1370;SDS011;14306;49.942;11.570;2023-05-28T11:06:14;9.50;;;4.03;;
1370;SDS011;14306;49.942;11.570;2023-05-28T11:08:45;7.03;;;3.60;;
1370;SDS011;14306;49.942;11.570;2023-05-28T11:11:16;7.57;;;3.40;;
1370;SDS011;14306;49.942;11.570;2023-05-28T11:13:47;5.40;;;3.00;;
1370;SDS011;14306;49.942;11.570;2023-05-28T11:16:17;6.47;;;4.00;;
1370;SDS011;14306;49.942;11.570;2023-05-28T11:18:59;4.63;;;3.03;;
1370;SDS011;14306;49.942;11.570;2023-05-28T11:21:28;7.20;;;3.23;;
1370;SDS011;14306;49.942;11.570;2023-05-28T11:24:00;9.23;;;3.40;;
1370;SDS011;14306;49.942;11.570;2023-05-28T11:26:29;7.50;;;4.33;;
1370;SDS011;14306;49.942;11.570;2023-05-28T11:28:58;8.30;;;3.40;;
1370;SDS011;14306;49.942;11.570;2023-05-28T11:31:36;10.13;;;3.60;;
1370;SDS011;14306;49.942;11.570;2023-05-28T11:34:06;5.20;;;3.30;;
1370;SDS011;14306;49.942;11.570;2023-05-28T11:36:38;5.60;;;3.50;;
1370;SDS011;14306;49.942;11.570;2023-05-28T11:39:09;4.60;;;2.73;;
1370;SDS011;14306;49.942;11.570;2023-05-28T11:41:39;9.30;;;3.23;;
1370;SDS011;14306;49.942;11.570;2023-05-28T11:44:18;7.73;;;3.60;;
1370;SDS011;14306;49.942;11.570;2023-05-28T11:46:50;4.10;;;3.50;;
1370;SDS011;14306;49.942;11.570;2023-05-28T11:49:21;6.97;;;3.30;;
1370;SDS011;14306;49.942;11.570;2023-05-28T11:51:50;4.63;;;2.70;;
1370;SDS011;14306;49.942;11.570;2023-05-28T11:54:21;4.67;;;3.23;;
1370;SDS011;14306;49.942;11.570;2023-05-28T11:56:50;5.50;;;3.53;;
1370;SDS011;14306;49.942;11.570;2023-05-28T11:59:20;8.40;;;3.93;;
1370;SDS011;14306;49.942;11.570;2023-05-28T12:01:53;6.70;;;3.50;;
1370;SDS011;14306;49.942;11.570;2023-05-28T12:04:21;6.60;;;3.03;;
1370;SDS011;14306;49.942;11.570;2023-05-28T12:06:51;5.30;;;3.40;;
1370;SDS011;14306;49.942;11.570;2023-05-28T12:09:23;5.97;;;3.67;;
1370;SDS011;14306;49.942;11.570;2023-05-28T12:12:01;6.20;;;3.40;;
1370;SDS011;14306;49.942;11.570;2023-05-28T12:14:31;9.20;;;3.63;;
1370;SDS011;14306;49.942;11.570;2023-05-28T12:17:06;4.43;;;2.30;;
1370;SDS011;14306;49.942;11.570;2023-05-28T12:19:38;8.10;;;3.40;;
1370;SDS011;14306;49.942;11.570;2023-05-28T12:22:12;4.30;;;3.40;;
1370;SDS011;14306;49.942;11.570;2023-05-28T12:24:50;4.23;;;2.97;;
1370;SDS011;14306;49.942;11.570;2023-05-28T12:27:20;5.97;;;3.50;;
1370;SDS011;14306;49.942;11.570;2023-05-28T12:29:53;3.93;;;3.10;;
1370;SDS011;14306;49.942;11.570;2023-05-28T12:32:25;9.07;;;4.00;;
1370;SDS011;14306;49.942;11.570;2023-05-28T12:34:54;5.83;;;3.73;;
1370;SDS011;14306;49.942;11.570;2023-05-28T12:37:28;6.93;;;3.57;;
1370;SDS011;14306;49.942;11.570;2023-05-28T12:39:59;6.07;;;3.70;;
1370;SDS011;14306;49.942;11.570;2023-05-28T12:42:28;5.27;;;4.10;;
1370;SDS011;14306;49.942;11.570;2023-05-28T12:44:57;4.97;;;2.67;;
1370;SDS011;14306;49.942;11.570;2023-05-28T12:47:25;5.43;;;3.17;;
1370;SDS011;14306;49.942;11.570;2023-05-28T12:49:54;6.03;;;3.00;;
1370;SDS011;14306;49.942;11.570;2023-05-28T12:52:23;6.60;;;3.13;;
1370;SDS011;14306;49.942;11.570;2023-05-28T12:54:51;5.77;;;3.37;;
1370;SDS011;14306;49.942;11.570;2023-05-28T12:57:40;6.30;;;2.97;;
1370;SDS011;14306;49.942;11.570;2023-05-28T13:00:09;4.50;;;3.03;;
1370;SDS011;14306;49.942;11.570;2023-05-28T13:02:40;6.37;;;3.30;;
1370;SDS011;14306;49.942;11.570;2023-05-28T13:05:09;5.60;;;3.27;;
1370;SDS011;14306;49.942;11.570;2023-05-28T13:07:38;9.50;;;3.83;;
1370;SDS011;14306;49.942;11.570;2023-05-28T13:10:08;9.13;;;4.23;;
1370;SDS011;14306;49.942;11.570;2023-05-28T13:12:42;5.13;;;3.20;;
1370;SDS011;14306;49.942;11.570;2023-05-28T13:15:11;5.53;;;3.07;;
1370;SDS011;14306;49.942;11.570;2023-05-28T13:17:43;6.17;;;3.10;;
1370;SDS011;14306;49.942;11.570;2023-05-28T13:20:12;8.83;;;3.63;;
1370;SDS011;14306;49.942;11.570;2023-05-28T13:22:43;5.90;;;2.60;;
1370;SDS011;14306;49.942;11.570;2023-05-28T13:25:12;4.77;;;3.10;;
1370;SDS011;14306;49.942;11.570;2023-05-28T13:27:43;7.43;;;3.30;;
1370;SDS011;14306;49.942;11.570;2023-05-28T13:30:12;5.20;;;2.93;;
1370;SDS011;14306;49.942;11.570;2023-05-28T13:32:43;4.93;;;3.03;;
1370;SDS011;14306;49.942;11.570;2023-05-28T13:35:15;5.53;;;2.97;;
1370;SDS011;14306;49.942;11.570;2023-05-28T13:37:45;5.93;;;3.03;;
1370;SDS011;14306;49.942;11.570;2023-05-28T13:40:15;5.37;;;2.80;;
1370;SDS011;14306;49.942;11.570;2023-05-28T13:42:49;6.07;;;2.60;;
1370;SDS011;14306;49.942;11.570;2023-05-28T13:45:19;7.90;;;3.10;;
1370;SDS011;14306;49.942;11.570;2023-05-28T13:47:49;11.10;;;3.40;;
1370;SDS011;14306;49.942;11.570;2023-05-28T13:50:18;5.73;;;3.33;;
1370;SDS011;14306;49.942;11.570;2023-05-28T13:52:47;4.60;;;3.00;;
1370;SDS011;14306;49.942;11.570;2023-05-28T13:55:16;4.30;;;3.00;;
1370;SDS011;14306;49.942;11.570;2023-05-28T13:57:45;11.23;;;3.57;;
1370;SDS011;14306;49.942;11.570;2023-05-28T14:00:16;5.37;;;3.20;;
1370;SDS011;14306;49.942;11.570;2023-05-28T14:03:03;4.27;;;3.43;;
1370;SDS011;14306;49.942;11.570;2023-05-28T14:05:33;6.17;;;3.40;;
1370;SDS011;14306;49.942;11.570;2023-05-28T14:08:04;6.63;;;3.00;;
1370;SDS011;14306;49.942;11.570;2023-05-28T14:10:33;4.43;;;3.30;;
1370;SDS011;14306;49.942;11.570;2023-05-28T14:13:02;7.97;;;3.30;;
1370;SDS011;14306;49.942;11.570;2023-05-28T14:15:34;11.13;;;3.00;;
1370;SDS011;14306;49.942;11.570;2023-05-28T14:18:06;9.57;;;3.10;;
1370;SDS011;14306;49.942;11.570;2023-05-28T14:20:36;4.03;;;3.07;;
1370;SDS011;14306;49.942;11.570;2023-05-28T14:23:06;7.10;;;3.30;;
1370;SDS011;14306;49.942;11.570;2023-05-28T14:25:34;8.23;;;4.20;;
1370;SDS011;14306;49.942;11.570;2023-05-28T14:28:03;5.10;;;3.37;;
1370;SDS011;14306;49.942;11.570;2023-05-28T14:30:39;4.43;;;3.13;;
1370;SDS011;14306;49.942;11.570;2023-05-28T14:33:09;4.10;;;2.93;;
1370;SDS011;14306;49.942;11.570;2023-05-28T14:35:39;6.20;;;3.03;;
1370;SDS011;14306;49.942;11.570;2023-05-28T14:38:10;6.43;;;3.40;;
1370;SDS011;14306;49.942;11.570;2023-05-28T14:40:39;4.77;;;2.90;;
1370;SDS011;14306;49.942;11.570;2023-05-28T14:43:09;8.00;;;3.17;;
1370;SDS011;14306;49.942;11.570;2023-05-28T14:45:41;4.93;;;3.20;;
1370;SDS011;14306;49.942;11.570;2023-05-28T14:48:10;6.13;;;3.70;;
1370;SDS011;14306;49.942;11.570;2023-05-28T14:50:40;5.30;;;3.20;;
1370;SDS011;14306;49.942;11.570;2023-05-28T14:53:11;11.50;;;3.10;;
1370;SDS011;14306;49.942;11.570;2023-05-28T14:55:40;10.87;;;3.60;;
1370;SDS011;14306;49.942;11.570;2023-05-28T14:58:09;5.53;;;3.03;;
1370;SDS011;14306;49.942;11.570;2023-05-28T15:00:38;3.60;;;2.37;;
1370;SDS011;14306;49.942;11.570;2023-05-28T15:03:09;6.50;;;3.30;;